Flight Track Log - Related Links

Times and Time Zones

All times are in EDT time to prevent confusion due to time zone crossing. See the N146ST flight status page for this flight to view local times or setup timezone preferences in your user account.

Time Position Orientation Groundspeed Altitude Reporting Facility
EDT Latitude Longitude Course Direction KTS MPH feet Rate Location/Type
Wed 11:51:54 AM 33.5500 -116.1167 140° Southeast 151 174 2,300  Level Southern California TRACON
Wed 11:52:48 AM 33.5167 -116.0833 139° Southeast 144 166 3,500 1,200 Climbing Southern California TRACON
Wed 11:53:19 AM 33.5053 -116.0714 135° Southeast 147 169 4,000 1,043 Climbing Los Angeles Center
Wed 11:54:20 AM 33.4742 -116.0342 139° Southeast 153 176 5,100 1,100 Climbing Los Angeles Center
Wed 11:55:19 AM 33.4406 -115.9992 147° Southeast 164 189 6,200 1,250 Climbing Los Angeles Center
Wed 11:56:20 AM 33.4031 -115.9694 145° Southeast 164 189 7,600 1,240 Climbing Los Angeles Center
Wed 11:57:20 AM 33.3675 -115.9397 141° Southeast 159 183 8,700 1,059 Climbing Los Angeles Center
Wed 11:58:19 AM 33.3342 -115.9075 146° Southeast 159 183 9,700 1,008 Climbing Los Angeles Center
Wed 11:59:19 AM 33.2944 -115.8753 144° Southeast 159 183 10,700 1,000 Climbing Los Angeles Center
Wed 12:00:19 PM 33.2547 -115.8406 144° Southeast 171 197 11,700 1,150 Climbing Los Angeles Center
Wed 12:01:19 PM 33.2150 -115.8058 146° Southeast 176 203 13,000 1,200 Climbing Los Angeles Center
Wed 12:02:19 PM 33.1750 -115.7739 140° Southeast 176 203 14,100 1,000 Climbing Los Angeles Center
Wed 12:03:19 PM 33.1353 -115.7342 145° Southeast 176 203 15,000 1,050 Climbing Los Angeles Center
Wed 12:04:19 PM 33.0914 -115.6972 152° Southeast 182 209 16,200 1,227 Climbing Los Angeles Center
Wed 12:05:31 PM 33.0369 -115.6628 158° South 187 215 17,700 1,273 Climbing Los Angeles Center
Wed 12:06:31 PM 32.9911 -115.6408 153° Southeast 187 215 19,000 1,200 Climbing Los Angeles Center
Wed 12:07:31 PM 32.9428 -115.6114 156° South 182 209 20,100 1,100 Climbing Los Angeles Center
Wed 12:08:31 PM 32.8928 -115.5844 156° South 193 222 21,200 1,000 Climbing Los Angeles Center
Wed 12:09:31 PM 32.8383 -115.5550 157° South 203 234 22,100 950 Climbing Los Angeles Center
Wed 12:10:31 PM 32.7861 -115.5283 147° Southeast 209 241 23,100 950 Climbing Los Angeles Center
Wed 12:11:31 PM 32.7378 -115.4917 113° Southeast 209 241 24,000 900 Climbing Los Angeles Center
Wed 12:12:31 PM 32.7186 -115.4372 118° Southeast 187 215 24,900 850 Climbing Los Angeles Center
Wed 12:13:31 PM 32.6933 -115.3808 143° Southeast 181 208 25,700 800 Climbing Los Angeles Center
Wed 12:20:32 PM 32.3136 -115.0402 154° Southeast  Level FlightAware Approximate
Wed 12:21:32 PM 32.2503 -115.0031 154° Southeast  Level FlightAware Approximate
Wed 12:22:32 PM 32.1869 -114.9661 154° Southeast  Level FlightAware Approximate
Wed 12:23:32 PM 32.1235 -114.9291 154° Southeast  Level FlightAware Approximate
Wed 12:24:32 PM 32.0601 -114.8922 154° Southeast  Level FlightAware Approximate
Wed 12:25:32 PM 31.9967 -114.8553 154° Southeast  Level FlightAware Approximate
Wed 12:26:32 PM 31.9333 -114.8185 154° Southeast  Level FlightAware Approximate
Wed 12:27:32 PM 31.8699 -114.7817 154° Southeast  Level FlightAware Approximate
Wed 12:28:32 PM 31.8065 -114.7449 154° Southeast  Level FlightAware Approximate
Wed 12:29:32 PM 31.7431 -114.7083 154° Southeast  Level FlightAware Approximate
Wed 12:30:32 PM 31.6796 -114.6716 154° Southeast  Level FlightAware Approximate
Wed 12:31:32 PM 31.6162 -114.6351 154° Southeast  Level FlightAware Approximate
Wed 12:32:32 PM 31.5527 -114.5985 154° Southeast  Level FlightAware Approximate
Wed 12:33:32 PM 31.4893 -114.5620 154° Southeast  Level FlightAware Approximate
Wed 12:34:32 PM 31.4258 -114.5256 154° Southeast  Level FlightAware Approximate
Wed 12:35:32 PM 31.3623 -114.4892 154° Southeast  Level FlightAware Approximate
Wed 12:36:32 PM 31.2988 -114.4529 158° South  Level FlightAware Approximate
Wed 12:37:32 PM 31.2339 -114.4217 154° Southeast  Level FlightAware Approximate
Wed 12:38:32 PM 31.1704 -114.3854 154° Southeast  Level FlightAware Approximate
Wed 12:39:32 PM 31.1069 -114.3491 154° Southeast  Level FlightAware Approximate
Wed 12:40:32 PM 31.0434 -114.3129 154° Southeast  Level FlightAware Approximate
Wed 12:41:32 PM 30.9799 -114.2767 154° Southeast  Level FlightAware Approximate
Wed 12:42:32 PM 30.9163 -114.2406 154° Southeast  Level FlightAware Approximate
Wed 12:43:32 PM 30.8528 -114.2046 154° Southeast  Level FlightAware Approximate
Wed 12:44:32 PM 30.7892 -114.1685 154° Southeast  Level FlightAware Approximate
Wed 12:45:32 PM 30.7257 -114.1326 154° Southeast  Level FlightAware Approximate
Wed 12:46:32 PM 30.6621 -114.0966 154° Southeast  Level FlightAware Approximate
Wed 12:47:32 PM 30.5985 -114.0608 154° Southeast  Level FlightAware Approximate
Wed 12:48:32 PM 30.5350 -114.0249 154° Southeast  Level FlightAware Approximate
Wed 12:49:32 PM 30.4713 -113.9891 154° Southeast  Level FlightAware Approximate
Wed 12:50:32 PM 30.4077 -113.9534 154° Southeast  Level FlightAware Approximate
Wed 12:51:32 PM 30.3441 -113.9177 154° Southeast  Level FlightAware Approximate
Wed 12:52:32 PM 30.2805 -113.8820 154° Southeast  Level FlightAware Approximate
Wed 12:53:32 PM 30.2169 -113.8465 154° Southeast  Level FlightAware Approximate
Wed 12:54:32 PM 30.1532 -113.8109 155° Southeast  Level FlightAware Approximate
Wed 12:55:32 PM 30.0893 -113.7760 152° Southeast  Level FlightAware Approximate
Wed 12:56:32 PM 30.0270 -113.7375 152° Southeast  Level FlightAware Approximate
Wed 12:57:32 PM 29.9647 -113.6990 152° Southeast  Level FlightAware Approximate
Wed 12:58:32 PM 29.9023 -113.6605 152° Southeast  Level FlightAware Approximate
Wed 12:59:32 PM 29.8400 -113.6220 152° Southeast  Level FlightAware Approximate
Wed 01:00:32 PM 29.7777 -113.5837 170° South  Level FlightAware Approximate
Wed 01:01:32 PM 29.7098 -113.5696 152° Southeast  Level FlightAware Approximate
Wed 01:02:32 PM 29.6476 -113.5309 152° Southeast  Level FlightAware Approximate
Wed 01:03:32 PM 29.5854 -113.4923 156° South  Level FlightAware Approximate
Wed 01:04:32 PM 29.5207 -113.4598 152° Southeast  Level FlightAware Approximate
Wed 01:05:32 PM 29.4585 -113.4212 152° Southeast  Level FlightAware Approximate
Wed 01:06:32 PM 29.3963 -113.3826 152° Southeast  Level FlightAware Approximate
Wed 01:07:32 PM 29.3341 -113.3441 152° Southeast  Level FlightAware Approximate
Wed 01:08:32 PM 29.2719 -113.3056 152° Southeast  Level FlightAware Approximate
Wed 01:09:32 PM 29.2097 -113.2672 152° Southeast  Level FlightAware Approximate
Wed 01:10:32 PM 29.1474 -113.2288 152° Southeast  Level FlightAware Approximate
Wed 01:11:32 PM 29.0852 -113.1903 152° Southeast  Level FlightAware Approximate
Wed 01:12:32 PM 29.0230 -113.1519 152° Southeast  Level FlightAware Approximate
Wed 01:13:32 PM 28.9608 -113.1136 152° Southeast  Level FlightAware Approximate
Wed 01:14:32 PM 28.8986 -113.0753 152° Southeast  Level FlightAware Approximate
Wed 01:15:32 PM 28.8363 -113.0370 152° Southeast  Level FlightAware Approximate
Wed 01:16:32 PM 28.7741 -112.9988 152° Southeast  Level FlightAware Approximate
Wed 01:17:32 PM 28.7118 -112.9607 152° Southeast  Level FlightAware Approximate
Wed 01:18:32 PM 28.6495 -112.9226 152° Southeast  Level FlightAware Approximate
Wed 01:19:32 PM 28.5873 -112.8845 152° Southeast  Level FlightAware Approximate
Wed 01:20:32 PM 28.5250 -112.8465 152° Southeast  Level FlightAware Approximate
Wed 01:21:32 PM 28.4627 -112.8085 152° Southeast  Level FlightAware Approximate
Wed 01:22:32 PM 28.4004 -112.7705 152° Southeast  Level FlightAware Approximate
Wed 01:23:32 PM 28.3381 -112.7327 152° Southeast  Level FlightAware Approximate
Wed 01:24:32 PM 28.2757 -112.6948 152° Southeast  Level FlightAware Approximate
Wed 01:25:32 PM 28.2134 -112.6570 152° Southeast  Level FlightAware Approximate
Wed 01:26:32 PM 28.1510 -112.6192 152° Southeast  Level FlightAware Approximate
Wed 01:27:32 PM 28.0887 -112.5815 152° Southeast  Level FlightAware Approximate
Wed 01:28:32 PM 28.0263 -112.5439 152° Southeast  Level FlightAware Approximate
Wed 01:29:32 PM 27.9639 -112.5062 152° Southeast  Level FlightAware Approximate
Wed 01:30:32 PM 27.9015 -112.4686 152° Southeast  Level FlightAware Approximate
Wed 01:31:32 PM 27.8391 -112.4311 152° Southeast  Level FlightAware Approximate
Wed 01:32:32 PM 27.7767 -112.3936 152° Southeast  Level FlightAware Approximate
Wed 01:33:32 PM 27.7142 -112.3561 152° Southeast  Level FlightAware Approximate
Wed 01:34:32 PM 27.6518 -112.3187 152° Southeast  Level FlightAware Approximate
Wed 01:35:32 PM 27.5893 -112.2814 152° Southeast  Level FlightAware Approximate
Wed 01:36:32 PM 27.5269 -112.2440 152° Southeast  Level FlightAware Approximate
Wed 01:37:32 PM 27.4644 -112.2067 152° Southeast  Level FlightAware Approximate
Wed 01:38:32 PM 27.4019 -112.1695 152° Southeast  Level FlightAware Approximate
Wed 01:39:32 PM 27.3395 -112.1322 152° Southeast  Level FlightAware Approximate
Wed 01:40:32 PM 27.2771 -112.0949 152° Southeast  Level FlightAware Approximate
Wed 01:41:32 PM 27.2146 -112.0576 152° Southeast  Level FlightAware Approximate
Wed 01:42:32 PM 27.1523 -112.0202 152° Southeast  Level FlightAware Approximate
Wed 01:43:32 PM 27.0899 -111.9829 152° Southeast  Level FlightAware Approximate
Wed 01:44:32 PM 27.0275 -111.9456 152° Southeast  Level FlightAware Approximate
Wed 01:45:32 PM 26.9651 -111.9083 152° Southeast  Level FlightAware Approximate
Wed 01:46:32 PM 26.9027 -111.8711 152° Southeast  Level FlightAware Approximate
Wed 01:47:32 PM 26.8403 -111.8339 152° Southeast  Level FlightAware Approximate
Wed 01:48:32 PM 26.7778 -111.7968 152° Southeast  Level FlightAware Approximate
Wed 01:49:32 PM 26.7154 -111.7597 152° Southeast  Level FlightAware Approximate
Wed 01:50:32 PM 26.6530 -111.7226 152° Southeast  Level FlightAware Approximate
Wed 01:51:32 PM 26.5905 -111.6856 152° Southeast  Level FlightAware Approximate
Wed 01:52:32 PM 26.5280 -111.6486 152° Southeast  Level FlightAware Approximate
Wed 01:53:32 PM 26.4655 -111.6117 152° Southeast  Level FlightAware Approximate
Wed 01:54:32 PM 26.4030 -111.5748 152° Southeast  Level FlightAware Approximate
Wed 01:55:32 PM 26.3405 -111.5379 152° Southeast  Level FlightAware Approximate
Wed 01:56:32 PM 26.2780 -111.5011 152° Southeast  Level FlightAware Approximate
Wed 01:57:32 PM 26.2155 -111.4643 152° Southeast  Level FlightAware Approximate
Wed 01:58:32 PM 26.1530 -111.4276 152° Southeast  Level FlightAware Approximate
Wed 01:59:32 PM 26.0905 -111.3909 152° Southeast  Level FlightAware Approximate
Wed 02:00:32 PM 26.0279 -111.3542 162° South  Level FlightAware Approximate
Wed 02:01:32 PM 25.9608 -111.3299 152° Southeast  Level FlightAware Approximate
Wed 02:02:32 PM 25.8984 -111.2931 152° Southeast  Level FlightAware Approximate
Wed 02:03:32 PM 25.8360 -111.2563 152° Southeast  Level FlightAware Approximate
Wed 02:04:32 PM 25.7735 -111.2195 152° Southeast  Level FlightAware Approximate
Wed 02:05:32 PM 25.7111 -111.1828 152° Southeast  Level FlightAware Approximate
Wed 02:06:32 PM 25.6486 -111.1461 152° Southeast  Level FlightAware Approximate
Wed 02:07:32 PM 25.5861 -111.1094 152° Southeast  Level FlightAware Approximate
Wed 02:08:32 PM 25.5236 -111.0728 152° Southeast  Level FlightAware Approximate
Wed 02:09:32 PM 25.4611 -111.0362 152° Southeast  Level FlightAware Approximate
Wed 02:10:32 PM 25.3986 -110.9997 152° Southeast  Level FlightAware Approximate
Wed 02:11:32 PM 25.3361 -110.9632 152° Southeast  Level FlightAware Approximate
Wed 02:12:32 PM 25.2736 -110.9267 152° Southeast  Level FlightAware Approximate
Wed 02:13:32 PM 25.2110 -110.8903 152° Southeast  Level FlightAware Approximate
Wed 02:14:32 PM 25.1485 -110.8539 152° Southeast  Level FlightAware Approximate
Wed 02:15:32 PM 25.0859 -110.8176 152° Southeast  Level FlightAware Approximate
Wed 02:16:32 PM 25.0234 -110.7812 152° Southeast  Level FlightAware Approximate
Wed 02:17:32 PM 24.9608 -110.7450 152° Southeast  Level FlightAware Approximate
Wed 02:18:32 PM 24.8982 -110.7087 152° Southeast  Level FlightAware Approximate
Wed 02:19:32 PM 24.8356 -110.6725 152° Southeast  Level FlightAware Approximate
Wed 02:20:32 PM 24.7730 -110.6364 152° Southeast  Level FlightAware Approximate
Wed 02:21:32 PM 24.7104 -110.6002 157° South  Level FlightAware Approximate
Wed 02:22:32 PM 24.6455 -110.5701 152° Southeast  Level FlightAware Approximate
Wed 02:23:32 PM 24.5830 -110.5338 149° Southeast  Level FlightAware Approximate
Wed 02:24:32 PM 24.5226 -110.4936 152° Southeast  Level FlightAware Approximate
Wed 02:25:32 PM 24.4600 -110.4575 152° Southeast  Level FlightAware Approximate
Wed 02:26:32 PM 24.3974 -110.4215 152° Southeast  Level FlightAware Approximate
Wed 02:27:32 PM 24.3347 -110.3855 149° Southeast  Level FlightAware Approximate
Wed 02:28:32 PM 24.2744 -110.3452 153° Southeast  Level FlightAware Approximate
Wed 02:29:32 PM 24.2117 -110.3096 153° Southeast  Level FlightAware Approximate
Wed 02:30:32 PM 24.1489 -110.2740 153° Southeast  Level FlightAware Approximate
Wed 02:31:32 PM 24.0861 -110.2384 157° South  Level FlightAware Approximate
Wed 02:32:32 PM 24.0212 -110.2088 152° Southeast  Level FlightAware Approximate
Wed 02:33:32 PM 23.9586 -110.1729 152° Southeast  Level FlightAware Approximate
Wed 02:34:32 PM 23.8960 -110.1370 157° South  Level FlightAware Approximate
Wed 02:35:32 PM 23.8312 -110.1062 152° Southeast  Level FlightAware Approximate
Wed 02:36:32 PM 23.7688 -110.0699 152° Southeast  Level FlightAware Approximate
Wed 02:37:32 PM 23.7064 -110.0336 154° Southeast  Level FlightAware Approximate
Wed 02:38:32 PM 23.6433 -110.0002 152° Southeast  Level FlightAware Approximate
Wed 02:39:32 PM 23.5811 -109.9636 152° Southeast  Level FlightAware Approximate
Wed 02:40:32 PM 23.5189 -109.9270 160° South  Level FlightAware Approximate
Wed 02:41:32 PM 23.4526 -109.9009 150° Southeast  Level FlightAware Approximate
Wed 02:42:32 PM 23.3917 -109.8618 146° Southeast  Level FlightAware Approximate
Wed 02:43:32 PM 23.3343 -109.8204 157° South  Level FlightAware Approximate
Wed 02:44:32 PM 23.2698 -109.7899 147° Southeast  Level FlightAware Approximate
Wed 02:45:32 PM 23.2109 -109.7477 157° South  Level FlightAware Approximate
Wed 02:46:32 PM 23.1457 -109.7182 173° South  Level Estimated
Wed 02:47:32 PM 23.1333 -109.7167 348° North  Level FlightAware Approximate
Wed 02:48:32 PM 23.2024 -109.7330 168° South  Level Estimated
Wed 02:49:32 PM 23.1333 -109.7167 348° North  Level FlightAware Approximate
Wed 02:50:32 PM 23.2024 -109.7330 168° South  Level Estimated
Wed 02:51:32 PM 23.1333 -109.7167 348° North  Level FlightAware Approximate
Wed 02:52:32 PM 23.2024 -109.7330 168° South  Level Estimated
Wed 02:53:32 PM 23.1333 -109.7167 348° North  Level FlightAware Approximate
Wed 02:54:32 PM 23.2024 -109.7330 168° South  Level Estimated
Wed 02:55:32 PM 23.1333 -109.7167 348° North  Level FlightAware Approximate
Wed 02:56:32 PM 23.2024 -109.7330 168° South  Level Estimated
Wed 02:57:32 PM 23.1333 -109.7167 168° South  Level FlightAware Approximate

Login

Don't have an account? Register now (free) for customized features, flight alerts, and more!